Time;durP1;ratioP1;P1;durP2;ratioP2;P2;SDS_P1;SDS_P2;PMS_P1;PMS_P2;Temp;Humidity;BMP_temperature;BMP_pressure;BME280_temperature;BME280_humidity;BME280_pressure;Samples;Min_cycle;Max_cycle;Signal;HPM_P1;HPM_P2
2023/06/30 00:01:48;;;;;;;;;;;18.20;89.60;;;;;;5117266;28;19992;-64
2023/06/30 00:04:18;;;;;;;;;;;18.30;90.10;;;;;;5116819;28;19991;-64
2023/06/30 00:06:50;;;;;;;;;;;18.20;89.30;;;;;;5116797;28;19996;-64
2023/06/30 00:09:16;;;;;;;;;;;18.20;89.40;;;;;;5116505;28;19985;-64
2023/06/30 00:11:42;;;;;;;;;;;18.20;89.40;;;;;;5116851;28;20027;-64
2023/06/30 00:14:07;;;;;;;;;;;18.20;90.00;;;;;;5116445;28;20055;-63
2023/06/30 00:16:33;;;;;;;;;;;18.20;90.30;;;;;;5116745;28;19992;-64
2023/06/30 00:18:58;;;;;;;;;;;18.10;90.10;;;;;;5116665;28;20039;-64
2023/06/30 00:21:24;;;;;;;;;;;18.10;90.00;;;;;;5116316;28;20478;-64
2023/06/30 00:23:49;;;;;;;;;;;18.10;89.70;;;;;;5116245;28;19992;-64
2023/06/30 00:26:15;;;;;;;;;;;18.10;90.00;;;;;;5116602;28;20374;-63
2023/06/30 00:28:41;;;;;;;;;;;18.10;89.60;;;;;;5116304;28;19985;-64
2023/06/30 00:31:06;;;;;;;;;;;18.00;89.60;;;;;;5116149;28;20096;-64
2023/06/30 00:33:32;;;;;;;;;;;18.00;90.00;;;;;;5116201;28;20015;-64
2023/06/30 00:35:57;;;;;;;;;;;18.00;89.90;;;;;;5115954;28;19992;-64
2023/06/30 00:38:23;;;;;;;;;;;18.00;90.10;;;;;;5115936;28;19992;-64
2023/06/30 00:40:48;;;;;;;;;;;17.90;90.20;;;;;;5116140;28;19996;-63
2023/06/30 00:43:14;;;;;;;;;;;17.90;89.00;;;;;;5116086;28;20000;-63
2023/06/30 00:45:39;;;;;;;;;;;17.80;88.80;;;;;;5116153;28;20496;-63
2023/06/30 00:48:05;;;;;;;;;;;17.80;89.20;;;;;;5115842;28;19992;-64
2023/06/30 00:50:32;;;;;;;;;;;17.80;89.60;;;;;;5115785;28;20446;-64
2023/06/30 00:52:58;;;;;;;;;;;17.80;89.40;;;;;;5115904;28;19985;-64
2023/06/30 00:55:24;;;;;;;;;;;17.80;89.50;;;;;;5116170;28;20000;-64
2023/06/30 00:57:50;;;;;;;;;;;17.80;89.80;;;;;;5115979;28;19988;-64
2023/06/30 01:00:16;;;;;;;;;;;17.80;89.80;;;;;;5115758;28;20382;-63
2023/06/30 01:02:49;;;;;;;;;;;17.70;90.20;;;;;;5115470;28;20014;-63
2023/06/30 01:05:25;;;;;;;;;;;17.70;90.20;;;;;;5115483;28;19996;-63
2023/06/30 01:07:58;;;;;;;;;;;17.70;90.50;;;;;;5115506;28;20387;-63
2023/06/30 01:10:24;;;;;;;;;;;17.60;90.80;;;;;;5115584;28;19985;-64
2023/06/30 01:12:50;;;;;;;;;;;17.60;90.90;;;;;;5115481;28;19985;-64
2023/06/30 01:15:16;;;;;;;;;;;17.60;90.70;;;;;;5115231;28;20015;-64
2023/06/30 01:17:47;;;;;;;;;;;17.60;90.80;;;;;;5115437;28;20431;-64
2023/06/30 01:20:14;;;;;;;;;;;17.60;90.90;;;;;;5114493;28;19988;-63
2023/06/30 01:22:43;;;;;;;;;;;17.50;90.80;;;;;;5115280;28;19996;-64
2023/06/30 01:25:10;;;;;;;;;;;17.50;90.80;;;;;;5115435;28;19992;-63
2023/06/30 01:27:38;;;;;;;;;;;17.50;90.30;;;;;;5115411;28;19988;-63
2023/06/30 01:30:06;;;;;;;;;;;17.50;90.30;;;;;;5115245;28;20029;-64
2023/06/30 01:32:32;;;;;;;;;;;17.40;90.10;;;;;;5115037;28;20358;-63
2023/06/30 01:34:58;;;;;;;;;;;17.40;90.10;;;;;;5114831;28;20015;-64
2023/06/30 01:37:23;;;;;;;;;;;17.30;90.20;;;;;;5114905;28;19984;-63
2023/06/30 01:39:49;;;;;;;;;;;17.30;90.40;;;;;;5115032;28;19988;-64
2023/06/30 01:42:16;;;;;;;;;;;17.30;90.40;;;;;;5114855;28;19984;-63
2023/06/30 01:44:42;;;;;;;;;;;17.30;90.30;;;;;;5114751;28;20091;-63
2023/06/30 01:47:09;;;;;;;;;;;17.30;90.60;;;;;;5114725;28;20501;-64
2023/06/30 01:49:35;;;;;;;;;;;17.20;90.50;;;;;;5114526;28;19988;-63
2023/06/30 01:52:03;;;;;;;;;;;17.20;90.70;;;;;;5114842;28;19996;-64
2023/06/30 01:54:29;;;;;;;;;;;17.10;90.90;;;;;;5114687;28;20016;-63
2023/06/30 01:56:54;;;;;;;;;;;17.10;90.60;;;;;;5114530;28;20470;-63
2023/06/30 01:59:20;;;;;;;;;;;17.10;90.50;;;;;;5114459;28;19999;-64
2023/06/30 02:01:46;;;;;;;;;;;17.10;90.60;;;;;;5114718;28;20353;-64
2023/06/30 02:04:11;;;;;;;;;;;17.10;90.50;;;;;;5114398;28;19989;-64
2023/06/30 02:06:37;;;;;;;;;;;17.00;90.50;;;;;;5114378;28;20072;-63
2023/06/30 02:09:03;;;;;;;;;;;17.00;90.40;;;;;;5114302;28;19985;-63
2023/06/30 02:11:28;;;;;;;;;;;17.00;90.20;;;;;;5114534;28;20020;-63
2023/06/30 02:13:54;;;;;;;;;;;17.00;90.30;;;;;;5114595;28;20062;-64
2023/06/30 02:16:19;;;;;;;;;;;17.00;90.60;;;;;;5114210;28;20481;-64
2023/06/30 02:18:45;;;;;;;;;;;17.00;90.60;;;;;;5114163;28;19988;-64
2023/06/30 02:21:10;;;;;;;;;;;16.90;90.40;;;;;;5114281;28;19992;-64
2023/06/30 02:23:36;;;;;;;;;;;16.90;90.40;;;;;;5114157;28;20029;-63
2023/06/30 02:26:01;;;;;;;;;;;16.90;90.30;;;;;;5114445;28;20435;-64
2023/06/30 02:28:27;;;;;;;;;;;16.80;90.20;;;;;;5114183;28;20465;-63
2023/06/30 02:30:54;;;;;;;;;;;16.80;90.10;;;;;;5113402;28;19988;-64
2023/06/30 02:33:19;;;;;;;;;;;16.80;90.50;;;;;;5113879;28;20028;-63
2023/06/30 02:35:45;;;;;;;;;;;16.80;90.30;;;;;;5114150;28;20081;-63
2023/06/30 02:38:10;;;;;;;;;;;16.70;90.20;;;;;;5114168;28;19985;-64
2023/06/30 02:40:36;;;;;;;;;;;16.70;90.40;;;;;;5114143;28;20438;-64
2023/06/30 02:43:02;;;;;;;;;;;16.70;90.40;;;;;;5095855;28;20398;-65
2023/06/30 02:45:28;;;;;;;;;;;16.70;90.70;;;;;;5113925;28;20052;-65
2023/06/30 02:47:53;;;;;;;;;;;16.70;90.70;;;;;;5113764;28;19984;-64
2023/06/30 02:50:27;;;;;;;;;;;16.70;90.90;;;;;;5114167;28;20051;-63
2023/06/30 02:52:53;;;;;;;;;;;16.60;91.00;;;;;;5113959;28;19984;-64
2023/06/30 02:55:18;;;;;;;;;;;16.60;91.00;;;;;;5113692;28;20066;-64
2023/06/30 02:57:44;;;;;;;;;;;16.50;90.70;;;;;;5113891;28;19991;-63
2023/06/30 03:00:10;;;;;;;;;;;16.50;91.00;;;;;;5113930;28;20034;-64
2023/06/30 03:02:36;;;;;;;;;;;16.50;91.00;;;;;;5113601;28;19985;-64
2023/06/30 03:05:01;;;;;;;;;;;16.50;91.20;;;;;;5113868;28;20079;-63
2023/06/30 03:07:27;;;;;;;;;;;16.50;90.80;;;;;;5113907;28;20050;-63
2023/06/30 03:09:52;;;;;;;;;;;16.50;90.70;;;;;;5113836;28;19992;-64
2023/06/30 03:12:18;;;;;;;;;;;16.50;91.00;;;;;;5113911;28;19988;-63
2023/06/30 03:14:44;;;;;;;;;;;16.50;90.80;;;;;;5113700;28;20008;-64
2023/06/30 03:17:09;;;;;;;;;;;16.50;91.00;;;;;;5113844;28;20089;-64
2023/06/30 03:19:35;;;;;;;;;;;16.50;91.10;;;;;;5113615;28;20082;-63
2023/06/30 03:22:00;;;;;;;;;;;16.40;91.00;;;;;;5113791;28;19992;-64
2023/06/30 03:24:26;;;;;;;;;;;16.40;91.00;;;;;;5113677;28;19985;-64
2023/06/30 03:26:52;;;;;;;;;;;16.50;91.20;;;;;;5113755;28;20084;-64
2023/06/30 03:29:17;;;;;;;;;;;16.40;91.00;;;;;;5113923;28;19989;-65
2023/06/30 03:31:43;;;;;;;;;;;16.40;90.80;;;;;;5113696;28;19993;-63
2023/06/30 03:34:08;;;;;;;;;;;16.40;91.10;;;;;;5113405;28;20484;-65
2023/06/30 03:36:34;;;;;;;;;;;16.30;91.10;;;;;;5113810;28;19992;-64
2023/06/30 03:38:59;;;;;;;;;;;16.30;91.10;;;;;;5113570;28;19999;-64
2023/06/30 03:41:26;;;;;;;;;;;16.40;91.10;;;;;;5113470;28;19992;-64
2023/06/30 03:43:52;;;;;;;;;;;16.40;91.10;;;;;;5117192;28;19992;-63
2023/06/30 03:46:17;;;;;;;;;;;16.40;91.10;;;;;;5116904;28;20020;-64
2023/06/30 03:48:43;;;;;;;;;;;16.40;91.00;;;;;;5117046;28;20139;-64
2023/06/30 03:51:09;;;;;;;;;;;16.40;91.00;;;;;;5116930;28;20000;-65
2023/06/30 03:53:34;;;;;;;;;;;16.40;91.10;;;;;;5117044;28;20009;-63
2023/06/30 03:56:00;;;;;;;;;;;16.50;91.10;;;;;;5116741;28;20501;-63
2023/06/30 03:58:27;;;;;;;;;;;16.40;91.10;;;;;;5116834;28;19985;-64
2023/06/30 04:00:53;;;;;;;;;;;16.50;91.30;;;;;;5116699;28;19985;-64
2023/06/30 04:03:18;;;;;;;;;;;16.50;91.00;;;;;;5116735;28;20004;-64
2023/06/30 04:05:44;;;;;;;;;;;16.60;91.40;;;;;;5116997;28;20087;-64
2023/06/30 04:08:09;;;;;;;;;;;16.60;91.90;;;;;;5116777;28;19992;-64
2023/06/30 04:10:35;;;;;;;;;;;16.60;91.90;;;;;;5116622;28;19985;-63
2023/06/30 04:13:04;;;;;;;;;;;16.50;92.10;;;;;;5116526;28;19984;-63
2023/06/30 04:15:30;;;;;;;;;;;16.50;92.40;;;;;;5116361;28;20015;-64
2023/06/30 04:17:55;;;;;;;;;;;16.40;93.10;;;;;;5116516;28;19985;-63
2023/06/30 04:20:21;;;;;;;;;;;16.50;93.00;;;;;;5116442;28;19984;-64
2023/06/30 04:22:47;;;;;;;;;;;16.50;92.90;;;;;;5116369;28;20508;-64
2023/06/30 04:25:13;;;;;;;;;;;16.50;93.00;;;;;;5116513;28;20320;-64
2023/06/30 04:27:39;;;;;;;;;;;16.50;93.00;;;;;;5116348;28;19995;-63
2023/06/30 04:30:08;;;;;;;;;;;16.60;92.90;;;;;;5116043;28;19984;-64
2023/06/30 04:32:33;;;;;;;;;;;16.70;92.80;;;;;;5116197;28;19992;-64
2023/06/30 04:34:59;;;;;;;;;;;16.70;92.70;;;;;;5116082;28;20012;-65
2023/06/30 04:37:28;;;;;;;;;;;16.80;92.80;;;;;;5116128;28;19985;-64
2023/06/30 04:39:58;;;;;;;;;;;16.90;92.70;;;;;;5116393;28;20354;-64
2023/06/30 04:42:23;;;;;;;;;;;16.80;93.00;;;;;;5116007;28;20466;-64
2023/06/30 04:44:49;;;;;;;;;;;16.70;93.20;;;;;;5116074;28;19993;-64
2023/06/30 04:47:17;;;;;;;;;;;16.70;93.60;;;;;;5115968;28;20502;-64
2023/06/30 04:49:43;;;;;;;;;;;16.70;93.60;;;;;;5115938;28;20519;-64
2023/06/30 04:52:08;;;;;;;;;;;16.70;93.80;;;;;;5115794;28;20024;-63
2023/06/30 04:54:34;;;;;;;;;;;16.70;93.90;;;;;;5114783;28;20355;-63
2023/06/30 04:57:00;;;;;;;;;;;16.80;94.10;;;;;;5115638;28;20000;-63
2023/06/30 04:59:25;;;;;;;;;;;16.80;94.50;;;;;;5115472;28;20358;-64
2023/06/30 05:01:51;;;;;;;;;;;16.80;94.60;;;;;;5115668;28;20331;-64
2023/06/30 05:04:16;;;;;;;;;;;16.80;94.90;;;;;;5115667;28;19988;-64
2023/06/30 05:06:42;;;;;;;;;;;16.80;95.00;;;;;;5115375;28;19985;-63
2023/06/30 05:09:07;;;;;;;;;;;16.80;95.30;;;;;;5115377;28;19993;-64
2023/06/30 05:11:33;;;;;;;;;;;16.80;95.70;;;;;;5114850;28;19984;-63
2023/06/30 05:13:59;;;;;;;;;;;16.80;95.80;;;;;;5113523;28;20012;-64
2023/06/30 05:16:24;;;;;;;;;;;17.00;96.20;;;;;;5113618;28;20090;-63
2023/06/30 05:18:50;;;;;;;;;;;17.10;95.60;;;;;;5114967;28;20071;-65
2023/06/30 05:21:15;;;;;;;;;;;17.20;94.90;;;;;;5114928;28;19999;-64
2023/06/30 05:23:41;;;;;;;;;;;17.40;94.40;;;;;;5114969;28;19984;-63
2023/06/30 05:26:06;;;;;;;;;;;17.50;93.30;;;;;;5114861;28;19985;-63
2023/06/30 05:28:34;;;;;;;;;;;17.60;93.00;;;;;;5115006;28;19985;-63
2023/06/30 05:31:00;;;;;;;;;;;17.70;92.60;;;;;;5115057;28;20354;-64
2023/06/30 05:33:25;;;;;;;;;;;17.80;92.10;;;;;;5114692;28;20024;-64
2023/06/30 05:35:51;;;;;;;;;;;17.90;92.40;;;;;;5113335;28;19991;-64
2023/06/30 05:38:16;;;;;;;;;;;18.00;92.30;;;;;;5111420;28;20618;-62
2023/06/30 05:40:42;;;;;;;;;;;18.10;92.10;;;;;;5111243;28;20350;-62
2023/06/30 05:43:08;;;;;;;;;;;18.20;92.70;;;;;;5112591;28;20083;-62
2023/06/30 05:45:33;;;;;;;;;;;18.20;92.90;;;;;;5112231;28;20035;-63
2023/06/30 05:47:59;;;;;;;;;;;18.30;92.10;;;;;;5112142;28;19989;-63
2023/06/30 05:50:27;;;;;;;;;;;18.40;92.10;;;;;;5113553;28;19988;-62
2023/06/30 05:52:52;;;;;;;;;;;18.60;91.60;;;;;;5112377;28;19984;-63
2023/06/30 05:55:18;;;;;;;;;;;18.60;90.80;;;;;;5112887;28;20480;-63
2023/06/30 05:57:43;;;;;;;;;;;18.80;91.60;;;;;;5111205;28;20012;-63
2023/06/30 06:00:09;;;;;;;;;;;18.90;91.60;;;;;;5111075;28;19995;-62
2023/06/30 06:02:34;;;;;;;;;;;19.00;90.40;;;;;;5111394;28;20029;-64
2023/06/30 06:05:00;;;;;;;;;;;19.00;90.00;;;;;;5111279;28;19985;-63
2023/06/30 06:07:25;;;;;;;;;;;19.10;90.10;;;;;;5111747;28;19988;-62
2023/06/30 06:09:51;;;;;;;;;;;19.20;90.10;;;;;;5111841;28;19988;-63
2023/06/30 06:12:17;;;;;;;;;;;19.40;90.00;;;;;;5113077;28;20083;-63
2023/06/30 06:14:43;;;;;;;;;;;19.50;87.50;;;;;;5114123;28;20009;-63
2023/06/30 06:17:08;;;;;;;;;;;19.60;90.30;;;;;;5114352;28;19985;-62
2023/06/30 06:19:34;;;;;;;;;;;19.80;87.00;;;;;;5114235;28;20008;-63
2023/06/30 06:22:00;;;;;;;;;;;19.90;87.30;;;;;;5113361;28;19995;-63
2023/06/30 06:24:26;;;;;;;;;;;20.00;88.30;;;;;;5114068;28;20000;-64
2023/06/30 06:26:51;;;;;;;;;;;20.10;85.50;;;;;;5113996;28;19988;-62
2023/06/30 06:29:21;;;;;;;;;;;20.30;87.70;;;;;;5114320;28;20076;-62
2023/06/30 06:31:50;;;;;;;;;;;20.40;87.10;;;;;;5114294;28;20362;-63
2023/06/30 06:34:19;;;;;;;;;;;20.50;85.90;;;;;;5113712;28;20023;-62
2023/06/30 06:36:45;;;;;;;;;;;20.70;85.40;;;;;;5112209;28;20503;-62
2023/06/30 06:39:11;;;;;;;;;;;20.80;81.50;;;;;;5113722;28;20089;-63
2023/06/30 06:41:36;;;;;;;;;;;20.90;81.90;;;;;;5113834;28;19984;-63
2023/06/30 06:44:02;;;;;;;;;;;21.00;79.70;;;;;;5114077;28;19989;-63
2023/06/30 06:46:28;;;;;;;;;;;21.20;80.40;;;;;;5113807;28;20020;-63
2023/06/30 06:48:54;;;;;;;;;;;21.30;80.50;;;;;;5113712;28;19988;-63
2023/06/30 06:51:20;;;;;;;;;;;21.40;80.60;;;;;;5113874;28;19985;-63
2023/06/30 06:53:46;;;;;;;;;;;21.50;77.90;;;;;;5113574;28;20061;-63
2023/06/30 06:56:11;;;;;;;;;;;21.70;81.70;;;;;;5113643;28;20043;-62
2023/06/30 06:58:38;;;;;;;;;;;21.80;80.80;;;;;;5113814;28;19989;-63
2023/06/30 07:01:04;;;;;;;;;;;21.80;81.30;;;;;;5113838;28;20010;-62
2023/06/30 07:03:30;;;;;;;;;;;21.90;80.80;;;;;;5113725;28;20617;-63
2023/06/30 07:05:56;;;;;;;;;;;22.00;78.80;;;;;;5114111;28;20099;-62
2023/06/30 07:08:21;;;;;;;;;;;22.20;80.70;;;;;;5113599;28;19985;-64
2023/06/30 07:10:48;;;;;;;;;;;22.30;82.40;;;;;;5112988;28;19992;-63
2023/06/30 07:13:18;;;;;;;;;;;22.40;79.50;;;;;;5113496;28;20079;-65
2023/06/30 07:15:45;;;;;;;;;;;22.50;79.90;;;;;;5112922;28;20083;-64
2023/06/30 07:18:10;;;;;;;;;;;22.70;76.40;;;;;;5116501;28;19988;-64
2023/06/30 07:20:36;;;;;;;;;;;22.80;77.40;;;;;;5116846;28;19992;-64
2023/06/30 07:23:02;;;;;;;;;;;23.00;75.80;;;;;;5116535;28;20457;-65
2023/06/30 07:25:27;;;;;;;;;;;23.10;75.10;;;;;;5117541;28;19984;-64
2023/06/30 07:27:54;;;;;;;;;;;23.20;78.90;;;;;;5117430;28;19989;-61
2023/06/30 07:30:21;;;;;;;;;;;23.40;76.30;;;;;;5117293;28;19984;-61
2023/06/30 07:32:46;;;;;;;;;;;23.50;76.10;;;;;;5117407;28;20024;-65
2023/06/30 07:35:12;;;;;;;;;;;23.60;74.40;;;;;;5117136;28;20059;-64
2023/06/30 07:37:38;;;;;;;;;;;23.70;75.70;;;;;;5116768;28;20404;-64
2023/06/30 07:40:04;;;;;;;;;;;23.90;72.20;;;;;;5116935;28;20049;-65
2023/06/30 07:42:29;;;;;;;;;;;24.00;71.70;;;;;;5114883;28;20551;-62
2023/06/30 07:44:55;;;;;;;;;;;24.20;74.20;;;;;;5115222;28;20011;-63
2023/06/30 07:47:20;;;;;;;;;;;24.30;71.80;;;;;;5116175;28;20020;-62
2023/06/30 07:49:46;;;;;;;;;;;25.10;70.50;;;;;;5116437;28;19990;-63
2023/06/30 07:52:11;;;;;;;;;;;27.50;63.30;;;;;;5116150;28;20461;-62
2023/06/30 07:54:37;;;;;;;;;;;30.00;59.00;;;;;;5116334;28;20057;-62
2023/06/30 07:57:03;;;;;;;;;;;32.10;54.50;;;;;;5116614;28;20000;-63
2023/06/30 07:59:28;;;;;;;;;;;33.60;50.90;;;;;;5116832;28;19984;-63
2023/06/30 08:01:54;;;;;;;;;;;34.90;46.90;;;;;;5116997;28;19991;-63
2023/06/30 08:04:21;;;;;;;;;;;35.90;44.30;;;;;;5116824;28;19984;-62
2023/06/30 08:06:47;;;;;;;;;;;36.70;42.00;;;;;;5116394;28;19985;-62
2023/06/30 08:09:13;;;;;;;;;;;37.50;42.20;;;;;;5115278;28;19984;-64
2023/06/30 08:11:39;;;;;;;;;;;38.20;42.40;;;;;;5116626;28;19999;-62
2023/06/30 08:14:04;;;;;;;;;;;38.20;39.20;;;;;;5116517;28;20009;-62
2023/06/30 08:16:30;;;;;;;;;;;38.40;39.20;;;;;;5116625;28;20020;-62
2023/06/30 08:18:55;;;;;;;;;;;38.40;39.80;;;;;;5116704;28;20067;-62
2023/06/30 08:21:21;;;;;;;;;;;38.20;37.60;;;;;;5116386;28;20023;-61
2023/06/30 08:23:47;;;;;;;;;;;38.30;38.00;;;;;;5116327;28;19984;-63
2023/06/30 08:26:12;;;;;;;;;;;38.80;40.30;;;;;;5116614;28;20031;-61
2023/06/30 08:28:38;;;;;;;;;;;39.10;37.40;;;;;;5116408;28;19995;-62
2023/06/30 08:31:04;;;;;;;;;;;39.30;39.20;;;;;;5116420;28;20358;-62
2023/06/30 08:33:29;;;;;;;;;;;39.50;36.70;;;;;;5116198;28;19985;-61
2023/06/30 08:35:55;;;;;;;;;;;39.50;36.10;;;;;;5116215;28;20397;-63
2023/06/30 08:38:20;;;;;;;;;;;39.30;35.10;;;;;;5116012;28;20071;-61
2023/06/30 08:40:46;;;;;;;;;;;39.40;37.70;;;;;;5116042;28;20029;-63
2023/06/30 08:43:12;;;;;;;;;;;39.40;37.50;;;;;;5116273;28;20088;-63
2023/06/30 08:45:43;;;;;;;;;;;39.40;36.40;;;;;;5115790;28;20390;-62
2023/06/30 08:48:08;;;;;;;;;;;39.50;36.00;;;;;;5115888;28;20032;-63
2023/06/30 08:50:35;;;;;;;;;;;39.60;37.10;;;;;;5115691;28;19984;-63
2023/06/30 08:53:01;;;;;;;;;;;39.60;38.00;;;;;;5114170;28;19985;-61
2023/06/30 08:55:26;;;;;;;;;;;39.40;36.60;;;;;;5115286;28;20017;-63
2023/06/30 08:57:56;;;;;;;;;;;39.40;38.30;;;;;;5115375;28;20051;-62
2023/06/30 09:00:22;;;;;;;;;;;39.60;39.30;;;;;;5115436;28;20074;-63
2023/06/30 09:02:48;;;;;;;;;;;39.50;37.70;;;;;;5115616;28;19989;-63
2023/06/30 09:05:14;;;;;;;;;;;39.40;35.70;;;;;;5114149;28;20393;-63
2023/06/30 09:07:45;;;;;;;;;;;39.30;33.90;;;;;;5113420;28;20000;-62
2023/06/30 09:10:11;;;;;;;;;;;38.50;35.80;;;;;;5115264;28;20358;-63
2023/06/30 09:12:38;;;;;;;;;;;38.60;35.30;;;;;;5096899;28;19996;-63
2023/06/30 09:15:05;;;;;;;;;;;38.80;37.30;;;;;;5115079;28;20383;-64
2023/06/30 09:17:30;;;;;;;;;;;39.10;36.10;;;;;;5115100;28;19996;-62
2023/06/30 09:19:56;;;;;;;;;;;39.10;36.10;;;;;;5096661;28;19989;-63
2023/06/30 09:22:21;;;;;;;;;;;38.80;37.70;;;;;;5115133;28;19985;-64
2023/06/30 09:24:47;;;;;;;;;;;38.70;35.30;;;;;;5114908;28;19992;-65
2023/06/30 09:27:13;;;;;;;;;;;38.40;34.90;;;;;;5115042;28;19992;-63
2023/06/30 09:29:39;;;;;;;;;;;38.40;36.60;;;;;;5114914;28;19995;-63
2023/06/30 09:32:05;;;;;;;;;;;38.40;37.80;;;;;;5114803;28;19989;-64
2023/06/30 09:34:30;;;;;;;;;;;38.20;36.40;;;;;;5114672;28;20009;-62
2023/06/30 09:36:56;;;;;;;;;;;37.90;37.20;;;;;;5113995;28;19985;-64
2023/06/30 09:39:22;;;;;;;;;;;37.50;37.50;;;;;;5114324;28;19989;-64
2023/06/30 09:41:49;;;;;;;;;;;37.40;37.70;;;;;;5114865;28;19984;-65
2023/06/30 09:44:17;;;;;;;;;;;37.40;37.30;;;;;;5114807;28;19985;-63
2023/06/30 09:46:46;;;;;;;;;;;37.50;37.40;;;;;;5114346;28;20048;-65
2023/06/30 09:49:21;;;;;;;;;;;37.50;37.50;;;;;;5114325;28;20031;-63
2023/06/30 09:51:47;;;;;;;;;;;37.70;38.50;;;;;;5114610;28;20431;-63
2023/06/30 09:54:15;;;;;;;;;;;37.70;38.00;;;;;;5113929;28;20023;-64
2023/06/30 09:56:41;;;;;;;;;;;37.80;34.90;;;;;;5114425;28;20052;-63
2023/06/30 09:59:07;;;;;;;;;;;38.00;35.00;;;;;;5114599;28;20358;-64
2023/06/30 10:01:34;;;;;;;;;;;37.90;37.20;;;;;;5114237;28;19989;-64
2023/06/30 10:04:00;;;;;;;;;;;37.90;37.50;;;;;;5114587;28;20411;-64
2023/06/30 10:06:27;;;;;;;;;;;37.60;33.60;;;;;;5114381;28;20071;-63
2023/06/30 10:08:55;;;;;;;;;;;37.60;37.70;;;;;;5113904;28;19989;-62
2023/06/30 10:11:22;;;;;;;;;;;37.60;35.40;;;;;;5114346;28;19988;-65
2023/06/30 10:13:49;;;;;;;;;;;37.60;37.30;;;;;;5114348;28;20009;-63
2023/06/30 10:16:16;;;;;;;;;;;37.50;38.60;;;;;;5113865;28;20025;-63
2023/06/30 10:18:44;;;;;;;;;;;37.60;36.80;;;;;;5114039;28;20473;-63
2023/06/30 10:21:09;;;;;;;;;;;37.40;37.30;;;;;;5113995;28;20052;-62
2023/06/30 10:23:35;;;;;;;;;;;37.30;36.80;;;;;;5113920;28;19989;-64
2023/06/30 10:26:04;;;;;;;;;;;37.40;35.80;;;;;;5113979;28;19984;-62
2023/06/30 10:28:31;;;;;;;;;;;37.50;37.50;;;;;;5114193;28;20397;-63
2023/06/30 10:30:57;;;;;;;;;;;37.70;38.40;;;;;;5113375;28;20080;-64
2023/06/30 10:33:22;;;;;;;;;;;38.10;37.80;;;;;;5113912;28;20419;-64
2023/06/30 10:35:49;;;;;;;;;;;38.00;36.90;;;;;;5114179;28;20024;-64
2023/06/30 10:38:15;;;;;;;;;;;38.00;36.50;;;;;;5113812;28;19988;-63
2023/06/30 10:40:40;;;;;;;;;;;37.90;38.40;;;;;;5113839;28;20346;-64
2023/06/30 10:43:06;;;;;;;;;;;38.20;38.80;;;;;;5114061;28;20421;-63
2023/06/30 10:45:55;;;;;;;;;;;38.10;39.50;;;;;;5113458;28;20116;-63
2023/06/30 10:48:20;;;;;;;;;;;37.80;38.20;;;;;;5113809;28;19989;-64
2023/06/30 10:50:46;;;;;;;;;;;37.60;36.50;;;;;;5112857;28;19991;-65
2023/06/30 10:53:18;;;;;;;;;;;37.40;36.60;;;;;;5117216;28;19989;-65
2023/06/30 10:55:43;;;;;;;;;;;37.50;40.10;;;;;;5117899;28;20501;-62
2023/06/30 10:58:09;;;;;;;;;;;37.60;38.30;;;;;;5117774;28;19992;-63
2023/06/30 11:00:35;;;;;;;;;;;37.50;38.00;;;;;;5116852;28;19996;-64
2023/06/30 11:03:03;;;;;;;;;;;37.60;37.70;;;;;;5117583;28;19992;-64
2023/06/30 11:05:30;;;;;;;;;;;37.70;39.80;;;;;;5117945;28;20332;-65
2023/06/30 11:08:01;;;;;;;;;;;37.80;38.80;;;;;;5117426;28;19995;-65
2023/06/30 11:10:33;;;;;;;;;;;37.90;37.00;;;;;;5117496;28;19992;-65
2023/06/30 11:12:59;;;;;;;;;;;37.40;38.50;;;;;;5116663;28;20033;-63
2023/06/30 11:15:26;;;;;;;;;;;37.20;37.20;;;;;;5117595;28;20008;-65
2023/06/30 11:17:52;;;;;;;;;;;37.20;36.50;;;;;;5117719;28;19984;-63
2023/06/30 11:20:17;;;;;;;;;;;36.90;38.90;;;;;;5117670;28;20118;-63
2023/06/30 11:23:00;;;;;;;;;;;36.80;38.20;;;;;;5118128;28;20415;-64
2023/06/30 11:25:26;;;;;;;;;;;36.70;35.80;;;;;;5117605;28;19991;-64
2023/06/30 11:27:52;;;;;;;;;;;36.70;37.00;;;;;;5116765;28;19993;-64
2023/06/30 11:30:18;;;;;;;;;;;36.70;36.90;;;;;;5116306;28;20072;-65
2023/06/30 11:32:45;;;;;;;;;;;36.60;36.80;;;;;;5116795;28;20079;-64
2023/06/30 11:35:16;;;;;;;;;;;36.80;37.10;;;;;;5116761;28;20009;-64
2023/06/30 11:37:48;;;;;;;;;;;36.90;38.90;;;;;;5115806;28;19988;-64
2023/06/30 11:40:14;;;;;;;;;;;37.10;38.60;;;;;;5115991;28;20075;-63
2023/06/30 11:42:40;;;;;;;;;;;36.90;35.10;;;;;;5116100;28;20031;-63
2023/06/30 11:45:06;;;;;;;;;;;36.90;35.90;;;;;;5116348;28;19984;-65
2023/06/30 11:47:33;;;;;;;;;;;36.80;38.40;;;;;;5115893;28;20031;-64
2023/06/30 11:50:04;;;;;;;;;;;36.90;35.50;;;;;;5116063;28;19989;-65
2023/06/30 11:52:32;;;;;;;;;;;37.10;38.50;;;;;;5115736;28;19988;-63
2023/06/30 11:54:58;;;;;;;;;;;37.10;36.20;;;;;;5116042;28;20012;-64
2023/06/30 11:57:24;;;;;;;;;;;37.10;36.10;;;;;;5115856;28;20049;-65
2023/06/30 11:59:49;;;;;;;;;;;37.30;38.60;;;;;;5115609;28;20396;-65
2023/06/30 12:02:15;;;;;;;;;;;37.20;38.80;;;;;;5115538;28;20024;-63
2023/06/30 12:04:45;;;;;;;;;;;37.20;36.80;;;;;;5115562;28;20013;-63
2023/06/30 12:07:13;;;;;;;;;;;37.40;37.40;;;;;;5115827;28;19992;-63
2023/06/30 12:09:40;;;;;;;;;;;37.50;40.50;;;;;;5115858;28;19992;-64
2023/06/30 12:12:07;;;;;;;;;;;37.10;39.90;;;;;;5115259;28;19988;-65
2023/06/30 12:14:39;;;;;;;;;;;36.90;39.70;;;;;;5115497;28;20008;-64
2023/06/30 12:17:04;;;;;;;;;;;37.00;38.60;;;;;;5115560;28;19998;-62
2023/06/30 12:19:30;;;;;;;;;;;37.20;39.50;;;;;;5114826;28;19984;-64
2023/06/30 12:22:00;;;;;;;;;;;37.20;41.10;;;;;;5114632;28;19984;-65
2023/06/30 12:24:30;;;;;;;;;;;36.90;39.60;;;;;;5115407;28;19990;-65
2023/06/30 12:26:55;;;;;;;;;;;36.70;40.10;;;;;;5115049;28;20032;-63
2023/06/30 12:29:21;;;;;;;;;;;36.60;40.40;;;;;;5115385;28;20020;-68
2023/06/30 12:31:47;;;;;;;;;;;36.30;39.60;;;;;;5115302;28;19985;-64
2023/06/30 12:34:29;;;;;;;;;;;36.20;39.20;;;;;;5114903;28;20035;-64
2023/06/30 12:36:58;;;;;;;;;;;36.20;37.90;;;;;;5115198;28;19995;-63
2023/06/30 12:39:23;;;;;;;;;;;36.40;38.10;;;;;;5115089;28;20518;-65
2023/06/30 12:41:49;;;;;;;;;;;36.70;37.10;;;;;;5114899;28;20023;-63
2023/06/30 12:44:14;;;;;;;;;;;36.70;38.30;;;;;;5115201;28;20344;-63
2023/06/30 12:46:40;;;;;;;;;;;36.50;36.20;;;;;;5037805;28;2180346;-65
2023/06/30 12:49:06;;;;;;;;;;;36.60;36.40;;;;;;5116033;28;20366;-65
2023/06/30 12:51:31;;;;;;;;;;;36.90;38.40;;;;;;5115954;28;20075;-63
2023/06/30 12:53:58;;;;;;;;;;;37.00;39.30;;;;;;5115822;28;20008;-63
2023/06/30 12:56:24;;;;;;;;;;;36.90;40.50;;;;;;5115831;28;20066;-65
2023/06/30 12:58:49;;;;;;;;;;;36.90;38.70;;;;;;5115803;28;19992;-64
2023/06/30 13:01:15;;;;;;;;;;;36.80;37.50;;;;;;5115877;28;19992;-63
2023/06/30 13:03:40;;;;;;;;;;;36.90;40.50;;;;;;5115570;28;19985;-65
2023/06/30 13:06:06;;;;;;;;;;;36.80;36.10;;;;;;5115958;28;20469;-63
2023/06/30 13:08:31;;;;;;;;;;;36.50;38.60;;;;;;5115561;28;19988;-63
2023/06/30 13:10:57;;;;;;;;;;;36.40;39.40;;;;;;5115331;28;19984;-65
2023/06/30 13:13:23;;;;;;;;;;;36.60;36.10;;;;;;5115568;28;19984;-64
2023/06/30 13:15:48;;;;;;;;;;;36.90;38.00;;;;;;5114606;28;20052;-62
2023/06/30 13:18:14;;;;;;;;;;;37.30;35.90;;;;;;5115283;28;20075;-63
2023/06/30 13:20:39;;;;;;;;;;;37.30;38.60;;;;;;5115350;28;19992;-65
2023/06/30 13:23:05;;;;;;;;;;;37.50;36.40;;;;;;5115436;28;19985;-63
2023/06/30 13:25:30;;;;;;;;;;;37.20;35.70;;;;;;5115104;28;20083;-64
2023/06/30 13:27:56;;;;;;;;;;;37.00;38.70;;;;;;5115161;28;19988;-65
2023/06/30 13:30:21;;;;;;;;;;;36.90;38.60;;;;;;5115291;28;19985;-63
2023/06/30 13:32:47;;;;;;;;;;;36.90;41.40;;;;;;5115172;28;20462;-64
2023/06/30 13:35:12;;;;;;;;;;;37.10;39.80;;;;;;5114971;28;20355;-62
2023/06/30 13:37:38;;;;;;;;;;;37.20;36.70;;;;;;5115293;28;20458;-62
2023/06/30 13:40:04;;;;;;;;;;;36.90;36.80;;;;;;5114928;28;20336;-63
2023/06/30 13:42:30;;;;;;;;;;;37.00;38.50;;;;;;5114944;28;20049;-62
2023/06/30 13:44:55;;;;;;;;;;;37.10;37.10;;;;;;5114964;28;20448;-62
2023/06/30 13:47:21;;;;;;;;;;;37.30;39.20;;;;;;5114636;28;20134;-64
2023/06/30 13:49:46;;;;;;;;;;;37.30;36.40;;;;;;5114770;28;20011;-63
2023/06/30 13:52:12;;;;;;;;;;;37.30;36.80;;;;;;5114828;28;20079;-63
2023/06/30 13:54:38;;;;;;;;;;;37.40;37.60;;;;;;5114499;28;20100;-63
2023/06/30 13:57:03;;;;;;;;;;;37.40;39.70;;;;;;5114600;28;20053;-64
2023/06/30 13:59:29;;;;;;;;;;;37.50;37.70;;;;;;5114856;28;19999;-64
2023/06/30 14:01:55;;;;;;;;;;;37.50;38.60;;;;;;5114551;28;20439;-62
2023/06/30 14:04:20;;;;;;;;;;;37.00;37.10;;;;;;5114559;28;19996;-62
2023/06/30 14:06:46;;;;;;;;;;;36.90;41.30;;;;;;5114552;28;19985;-62
2023/06/30 14:09:11;;;;;;;;;;;37.00;38.60;;;;;;5114505;28;19989;-63
2023/06/30 14:11:37;;;;;;;;;;;36.90;39.10;;;;;;5114475;28;20493;-63